sensor_id;sensor_type;location;lat;lon;timestamp;temperature;humidity
2653;DHT22;1336;48.692;9.144;2022-11-13T06:00:28;5.50;97.20
2653;DHT22;1336;48.692;9.144;2022-11-13T06:01:22;5.50;97.20
2653;DHT22;1336;48.692;9.144;2022-11-13T06:02:13;5.50;97.20
2653;DHT22;1336;48.692;9.144;2022-11-13T06:03:05;5.50;97.20
2653;DHT22;1336;48.692;9.144;2022-11-13T06:03:57;5.50;97.20
2653;DHT22;1336;48.692;9.144;2022-11-13T06:04:49;5.50;97.20
2653;DHT22;1336;48.692;9.144;2022-11-13T06:05:40;5.50;97.20
2653;DHT22;1336;48.692;9.144;2022-11-13T06:06:32;5.50;97.20
2653;DHT22;1336;48.692;9.144;2022-11-13T06:07:23;5.50;97.20
2653;DHT22;1336;48.692;9.144;2022-11-13T06:08:14;5.50;97.20
2653;DHT22;1336;48.692;9.144;2022-11-13T06:09:05;5.50;97.20
2653;DHT22;1336;48.692;9.144;2022-11-13T06:09:57;5.50;97.20
2653;DHT22;1336;48.692;9.144;2022-11-13T06:10:48;5.50;97.20
2653;DHT22;1336;48.692;9.144;2022-11-13T06:11:40;5.50;97.20
2653;DHT22;1336;48.692;9.144;2022-11-13T06:12:30;5.50;97.20
2653;DHT22;1336;48.692;9.144;2022-11-13T06:13:22;5.50;97.20
2653;DHT22;1336;48.692;9.144;2022-11-13T06:14:13;5.40;97.20
2653;DHT22;1336;48.692;9.144;2022-11-13T06:15:05;5.40;97.20
2653;DHT22;1336;48.692;9.144;2022-11-13T06:16:01;5.40;97.20
2653;DHT22;1336;48.692;9.144;2022-11-13T06:16:53;5.40;97.20
2653;DHT22;1336;48.692;9.144;2022-11-13T06:17:44;5.40;97.20
2653;DHT22;1336;48.692;9.144;2022-11-13T06:18:36;5.50;97.20
2653;DHT22;1336;48.692;9.144;2022-11-13T06:19:27;5.50;97.20
2653;DHT22;1336;48.692;9.144;2022-11-13T06:20:19;5.50;97.20
2653;DHT22;1336;48.692;9.144;2022-11-13T06:21:11;5.50;97.20
2653;DHT22;1336;48.692;9.144;2022-11-13T06:22:03;5.50;97.20
2653;DHT22;1336;48.692;9.144;2022-11-13T06:22:54;5.50;97.20
2653;DHT22;1336;48.692;9.144;2022-11-13T06:23:46;5.50;97.20
2653;DHT22;1336;48.692;9.144;2022-11-13T06:24:37;5.50;97.20
2653;DHT22;1336;48.692;9.144;2022-11-13T06:25:28;5.50;97.20
2653;DHT22;1336;48.692;9.144;2022-11-13T06:26:21;5.60;97.20
2653;DHT22;1336;48.692;9.144;2022-11-13T06:27:13;5.60;97.20
2653;DHT22;1336;48.692;9.144;2022-11-13T06:28:04;5.60;97.20
2653;DHT22;1336;48.692;9.144;2022-11-13T06:28:56;5.60;97.20
2653;DHT22;1336;48.692;9.144;2022-11-13T06:29:47;5.60;97.20
2653;DHT22;1336;48.692;9.144;2022-11-13T06:30:38;5.60;97.20
2653;DHT22;1336;48.692;9.144;2022-11-13T06:31:32;5.60;97.20
2653;DHT22;1336;48.692;9.144;2022-11-13T06:32:24;5.60;97.20
2653;DHT22;1336;48.692;9.144;2022-11-13T06:33:15;5.60;97.20
2653;DHT22;1336;48.692;9.144;2022-11-13T06:34:07;5.60;97.20
2653;DHT22;1336;48.692;9.144;2022-11-13T06:34:57;5.60;97.20
2653;DHT22;1336;48.692;9.144;2022-11-13T06:35:49;5.60;97.20
2653;DHT22;1336;48.692;9.144;2022-11-13T06:36:40;5.60;97.20
2653;DHT22;1336;48.692;9.144;2022-11-13T06:37:31;5.60;97.20
2653;DHT22;1336;48.692;9.144;2022-11-13T06:38:22;5.60;97.20
2653;DHT22;1336;48.692;9.144;2022-11-13T06:39:14;5.60;97.20
2653;DHT22;1336;48.692;9.144;2022-11-13T06:40:07;5.60;97.20
2653;DHT22;1336;48.692;9.144;2022-11-13T06:40:58;5.60;97.20
2653;DHT22;1336;48.692;9.144;2022-11-13T06:41:50;5.60;97.20
2653;DHT22;1336;48.692;9.144;2022-11-13T06:42:41;5.60;97.20
2653;DHT22;1336;48.692;9.144;2022-11-13T06:43:32;5.60;97.20
2653;DHT22;1336;48.692;9.144;2022-11-13T06:44:23;5.60;97.20
2653;DHT22;1336;48.692;9.144;2022-11-13T06:45:15;5.60;97.20
2653;DHT22;1336;48.692;9.144;2022-11-13T06:46:09;5.70;97.20
2653;DHT22;1336;48.692;9.144;2022-11-13T06:47:03;5.70;97.20
2653;DHT22;1336;48.692;9.144;2022-11-13T06:47:54;5.70;97.20
2653;DHT22;1336;48.692;9.144;2022-11-13T06:48:46;5.70;97.20
2653;DHT22;1336;48.692;9.144;2022-11-13T06:49:37;5.70;97.20
2653;DHT22;1336;48.692;9.144;2022-11-13T06:50:29;5.70;97.20
2653;DHT22;1336;48.692;9.144;2022-11-13T06:51:22;5.70;97.20
2653;DHT22;1336;48.692;9.144;2022-11-13T06:52:14;5.70;97.20
2653;DHT22;1336;48.692;9.144;2022-11-13T06:53:04;5.70;97.20
2653;DHT22;1336;48.692;9.144;2022-11-13T06:53:57;5.70;97.20
2653;DHT22;1336;48.692;9.144;2022-11-13T06:54:47;5.70;97.20
2653;DHT22;1336;48.692;9.144;2022-11-13T06:55:42;5.70;97.20
2653;DHT22;1336;48.692;9.144;2022-11-13T06:56:33;5.80;97.20
2653;DHT22;1336;48.692;9.144;2022-11-13T06:57:25;5.80;97.20
2653;DHT22;1336;48.692;9.144;2022-11-13T06:58:16;5.80;97.20
2653;DHT22;1336;48.692;9.144;2022-11-13T06:59:08;5.80;97.20
2653;DHT22;1336;48.692;9.144;2022-11-13T06:59:58;5.80;97.20
2653;DHT22;1336;48.692;9.144;2022-11-13T07:00:50;5.80;97.20
2653;DHT22;1336;48.692;9.144;2022-11-13T07:01:41;5.80;97.20
2653;DHT22;1336;48.692;9.144;2022-11-13T07:02:34;5.80;97.20
2653;DHT22;1336;48.692;9.144;2022-11-13T07:03:25;5.90;97.20
2653;DHT22;1336;48.692;9.144;2022-11-13T07:04:17;5.90;97.20
2653;DHT22;1336;48.692;9.144;2022-11-13T07:05:08;5.90;97.20
2653;DHT22;1336;48.692;9.144;2022-11-13T07:06:00;5.90;97.20
2653;DHT22;1336;48.692;9.144;2022-11-13T07:06:52;5.90;97.20
2653;DHT22;1336;48.692;9.144;2022-11-13T07:07:43;5.90;97.20
2653;DHT22;1336;48.692;9.144;2022-11-13T07:08:34;5.90;97.20
2653;DHT22;1336;48.692;9.144;2022-11-13T07:09:26;5.90;97.20
2653;DHT22;1336;48.692;9.144;2022-11-13T07:10:17;5.90;97.20
2653;DHT22;1336;48.692;9.144;2022-11-13T07:11:10;5.90;97.20
2653;DHT22;1336;48.692;9.144;2022-11-13T07:12:01;6.00;97.20
2653;DHT22;1336;48.692;9.144;2022-11-13T07:12:53;6.00;97.20
2653;DHT22;1336;48.692;9.144;2022-11-13T07:13:43;6.00;97.20
2653;DHT22;1336;48.692;9.144;2022-11-13T07:14:35;6.00;97.20
2653;DHT22;1336;48.692;9.144;2022-11-13T07:15:26;6.00;97.20
2653;DHT22;1336;48.692;9.144;2022-11-13T07:16:18;6.00;97.20
2653;DHT22;1336;48.692;9.144;2022-11-13T07:17:09;6.00;97.20
2653;DHT22;1336;48.692;9.144;2022-11-13T07:18:02;6.00;97.20
2653;DHT22;1336;48.692;9.144;2022-11-13T07:18:53;6.00;97.20
2653;DHT22;1336;48.692;9.144;2022-11-13T07:19:45;6.00;97.20
2653;DHT22;1336;48.692;9.144;2022-11-13T07:20:36;6.00;97.20
2653;DHT22;1336;48.692;9.144;2022-11-13T07:21:28;6.00;97.20
2653;DHT22;1336;48.692;9.144;2022-11-13T07:22:18;6.00;97.20
2653;DHT22;1336;48.692;9.144;2022-11-13T07:23:10;6.10;97.20
2653;DHT22;1336;48.692;9.144;2022-11-13T07:24:01;6.10;97.20
2653;DHT22;1336;48.692;9.144;2022-11-13T07:24:53;6.10;97.20
2653;DHT22;1336;48.692;9.144;2022-11-13T07:25:43;6.10;97.20
2653;DHT22;1336;48.692;9.144;2022-11-13T07:26:35;6.10;97.20
2653;DHT22;1336;48.692;9.144;2022-11-13T07:27:26;6.00;97.20
2653;DHT22;1336;48.692;9.144;2022-11-13T07:28:17;6.00;97.20
2653;DHT22;1336;48.692;9.144;2022-11-13T07:29:08;6.00;97.20
2653;DHT22;1336;48.692;9.144;2022-11-13T07:30:00;6.00;97.20
2653;DHT22;1336;48.692;9.144;2022-11-13T07:30:51;6.00;97.20
2653;DHT22;1336;48.692;9.144;2022-11-13T07:31:42;5.90;97.20
2653;DHT22;1336;48.692;9.144;2022-11-13T07:32:33;5.90;97.20
2653;DHT22;1336;48.692;9.144;2022-11-13T07:33:26;5.90;97.20
2653;DHT22;1336;48.692;9.144;2022-11-13T07:34:17;5.90;97.20
2653;DHT22;1336;48.692;9.144;2022-11-13T07:35:09;5.90;97.20
2653;DHT22;1336;48.692;9.144;2022-11-13T07:36:00;5.90;97.20
2653;DHT22;1336;48.692;9.144;2022-11-13T07:36:51;5.90;97.20
2653;DHT22;1336;48.692;9.144;2022-11-13T07:37:42;5.90;97.20
2653;DHT22;1336;48.692;9.144;2022-11-13T07:38:34;5.80;97.20
2653;DHT22;1336;48.692;9.144;2022-11-13T07:39:25;5.90;97.20
2653;DHT22;1336;48.692;9.144;2022-11-13T07:40:17;5.80;97.20
2653;DHT22;1336;48.692;9.144;2022-11-13T07:41:07;5.90;97.20
2653;DHT22;1336;48.692;9.144;2022-11-13T07:41:59;5.90;97.20
2653;DHT22;1336;48.692;9.144;2022-11-13T07:42:56;5.90;97.20
2653;DHT22;1336;48.692;9.144;2022-11-13T07:43:48;6.00;97.20
2653;DHT22;1336;48.692;9.144;2022-11-13T07:44:39;6.00;97.20
2653;DHT22;1336;48.692;9.144;2022-11-13T07:45:31;6.00;97.20
2653;DHT22;1336;48.692;9.144;2022-11-13T07:46:21;6.10;97.20
2653;DHT22;1336;48.692;9.144;2022-11-13T07:47:13;6.10;97.20
2653;DHT22;1336;48.692;9.144;2022-11-13T07:48:04;6.10;97.20
2653;DHT22;1336;48.692;9.144;2022-11-13T07:48:57;6.10;97.20
2653;DHT22;1336;48.692;9.144;2022-11-13T07:49:48;6.20;97.20
2653;DHT22;1336;48.692;9.144;2022-11-13T07:50:40;6.20;97.20
2653;DHT22;1336;48.692;9.144;2022-11-13T07:51:31;6.20;97.20
2653;DHT22;1336;48.692;9.144;2022-11-13T07:52:23;6.30;97.20
2653;DHT22;1336;48.692;9.144;2022-11-13T07:53:14;6.30;97.20
2653;DHT22;1336;48.692;9.144;2022-11-13T07:54:06;6.30;97.20
2653;DHT22;1336;48.692;9.144;2022-11-13T07:54:56;6.30;97.20
2653;DHT22;1336;48.692;9.144;2022-11-13T07:55:48;6.40;97.20
2653;DHT22;1336;48.692;9.144;2022-11-13T07:56:39;6.40;97.20
2653;DHT22;1336;48.692;9.144;2022-11-13T07:57:31;6.40;97.20
2653;DHT22;1336;48.692;9.144;2022-11-13T07:58:21;6.40;97.20
2653;DHT22;1336;48.692;9.144;2022-11-13T07:59:13;6.50;97.20
2653;DHT22;1336;48.692;9.144;2022-11-13T08:00:05;6.50;97.20
2653;DHT22;1336;48.692;9.144;2022-11-13T08:01:00;6.50;97.20
2653;DHT22;1336;48.692;9.144;2022-11-13T08:01:52;6.50;97.20
2653;DHT22;1336;48.692;9.144;2022-11-13T08:02:44;6.50;97.20
2653;DHT22;1336;48.692;9.144;2022-11-13T08:03:37;6.50;97.20
2653;DHT22;1336;48.692;9.144;2022-11-13T08:04:30;6.50;97.20
2653;DHT22;1336;48.692;9.144;2022-11-13T08:05:21;6.50;97.20
2653;DHT22;1336;48.692;9.144;2022-11-13T08:06:13;6.50;97.20
2653;DHT22;1336;48.692;9.144;2022-11-13T08:07:04;6.50;97.20
2653;DHT22;1336;48.692;9.144;2022-11-13T08:07:56;6.60;97.20
2653;DHT22;1336;48.692;9.144;2022-11-13T08:08:47;6.60;97.20
2653;DHT22;1336;48.692;9.144;2022-11-13T08:09:39;6.60;97.20
2653;DHT22;1336;48.692;9.144;2022-11-13T08:10:30;6.70;97.20
2653;DHT22;1336;48.692;9.144;2022-11-13T08:11:22;6.70;97.20
2653;DHT22;1336;48.692;9.144;2022-11-13T08:12:13;6.70;97.20
2653;DHT22;1336;48.692;9.144;2022-11-13T08:13:06;6.70;97.20
2653;DHT22;1336;48.692;9.144;2022-11-13T08:13:57;6.80;97.20
2653;DHT22;1336;48.692;9.144;2022-11-13T08:14:49;6.80;97.20
2653;DHT22;1336;48.692;9.144;2022-11-13T08:15:40;6.90;97.20
2653;DHT22;1336;48.692;9.144;2022-11-13T08:16:32;6.90;97.20
2653;DHT22;1336;48.692;9.144;2022-11-13T08:17:22;7.00;97.20
2653;DHT22;1336;48.692;9.144;2022-11-13T08:18:14;7.10;97.20
2653;DHT22;1336;48.692;9.144;2022-11-13T08:19:05;7.20;97.20
2653;DHT22;1336;48.692;9.144;2022-11-13T08:19:58;7.20;97.20
2653;DHT22;1336;48.692;9.144;2022-11-13T08:20:49;7.30;97.20
2653;DHT22;1336;48.692;9.144;2022-11-13T08:21:40;7.40;97.20
2653;DHT22;1336;48.692;9.144;2022-11-13T08:22:31;7.50;97.20
2653;DHT22;1336;48.692;9.144;2022-11-13T08:23:23;7.60;97.20
2653;DHT22;1336;48.692;9.144;2022-11-13T08:24:14;7.70;97.20
2653;DHT22;1336;48.692;9.144;2022-11-13T08:25:06;7.80;97.20
2653;DHT22;1336;48.692;9.144;2022-11-13T08:25:57;7.90;97.20
2653;DHT22;1336;48.692;9.144;2022-11-13T08:26:49;8.00;97.20
2653;DHT22;1336;48.692;9.144;2022-11-13T08:27:39;8.10;97.20
2653;DHT22;1336;48.692;9.144;2022-11-13T08:28:31;8.20;97.20
2653;DHT22;1336;48.692;9.144;2022-11-13T08:29:23;8.30;97.20
2653;DHT22;1336;48.692;9.144;2022-11-13T08:30:14;8.40;97.20
2653;DHT22;1336;48.692;9.144;2022-11-13T08:31:09;8.50;97.20
2653;DHT22;1336;48.692;9.144;2022-11-13T08:32:01;8.70;97.20
2653;DHT22;1336;48.692;9.144;2022-11-13T08:32:52;8.80;97.20
2653;DHT22;1336;48.692;9.144;2022-11-13T08:33:43;8.90;97.20
2653;DHT22;1336;48.692;9.144;2022-11-13T08:34:34;9.00;97.20
2653;DHT22;1336;48.692;9.144;2022-11-13T08:35:28;9.10;97.20
2653;DHT22;1336;48.692;9.144;2022-11-13T08:36:19;9.20;97.20
2653;DHT22;1336;48.692;9.144;2022-11-13T08:37:11;9.30;97.20
2653;DHT22;1336;48.692;9.144;2022-11-13T08:38:02;9.40;97.20
2653;DHT22;1336;48.692;9.144;2022-11-13T08:38:54;9.50;97.20
2653;DHT22;1336;48.692;9.144;2022-11-13T08:39:45;9.60;97.20
2653;DHT22;1336;48.692;9.144;2022-11-13T08:40:36;9.70;97.20
2653;DHT22;1336;48.692;9.144;2022-11-13T08:41:27;9.80;97.20
2653;DHT22;1336;48.692;9.144;2022-11-13T08:42:19;9.90;97.20
2653;DHT22;1336;48.692;9.144;2022-11-13T08:43:10;9.90;97.20
2653;DHT22;1336;48.692;9.144;2022-11-13T08:44:01;10.00;97.20
2653;DHT22;1336;48.692;9.144;2022-11-13T08:44:52;10.10;97.20
2653;DHT22;1336;48.692;9.144;2022-11-13T08:45:44;10.20;97.20
2653;DHT22;1336;48.692;9.144;2022-11-13T08:46:35;10.30;97.20
2653;DHT22;1336;48.692;9.144;2022-11-13T08:47:27;10.30;97.20
2653;DHT22;1336;48.692;9.144;2022-11-13T08:48:18;10.40;97.20
2653;DHT22;1336;48.692;9.144;2022-11-13T08:49:10;10.50;97.20
2653;DHT22;1336;48.692;9.144;2022-11-13T08:50:02;10.50;97.20
2653;DHT22;1336;48.692;9.144;2022-11-13T08:50:56;10.60;97.20
2653;DHT22;1336;48.692;9.144;2022-11-13T08:51:47;10.70;97.20
2653;DHT22;1336;48.692;9.144;2022-11-13T08:52:38;10.80;97.20
2653;DHT22;1336;48.692;9.144;2022-11-13T08:53:29;10.80;97.20
2653;DHT22;1336;48.692;9.144;2022-11-13T08:54:21;10.90;97.20
2653;DHT22;1336;48.692;9.144;2022-11-13T08:55:12;10.90;97.20
2653;DHT22;1336;48.692;9.144;2022-11-13T08:56:04;10.90;97.20
2653;DHT22;1336;48.692;9.144;2022-11-13T08:56:55;11.00;97.20
2653;DHT22;1336;48.692;9.144;2022-11-13T08:57:46;11.10;97.20
2653;DHT22;1336;48.692;9.144;2022-11-13T08:58:38;11.10;97.20
2653;DHT22;1336;48.692;9.144;2022-11-13T08:59:29;11.20;97.20
2653;DHT22;1336;48.692;9.144;2022-11-13T09:00:21;11.20;97.20
2653;DHT22;1336;48.692;9.144;2022-11-13T09:01:11;11.30;97.20
2653;DHT22;1336;48.692;9.144;2022-11-13T09:02:03;11.40;97.20
2653;DHT22;1336;48.692;9.144;2022-11-13T09:02:54;11.50;97.20
2653;DHT22;1336;48.692;9.144;2022-11-13T09:03:47;11.50;97.20
2653;DHT22;1336;48.692;9.144;2022-11-13T09:04:38;11.50;97.20
2653;DHT22;1336;48.692;9.144;2022-11-13T09:05:30;11.60;97.20
2653;DHT22;1336;48.692;9.144;2022-11-13T09:06:22;11.70;97.20
2653;DHT22;1336;48.692;9.144;2022-11-13T09:07:14;11.80;97.20
2653;DHT22;1336;48.692;9.144;2022-11-13T09:08:05;11.80;97.20
2653;DHT22;1336;48.692;9.144;2022-11-13T09:08:56;11.90;97.20
2653;DHT22;1336;48.692;9.144;2022-11-13T09:09:47;12.00;97.20
2653;DHT22;1336;48.692;9.144;2022-11-13T09:10:39;12.10;97.20
2653;DHT22;1336;48.692;9.144;2022-11-13T09:11:29;12.10;97.20
2653;DHT22;1336;48.692;9.144;2022-11-13T09:12:21;12.20;97.20
2653;DHT22;1336;48.692;9.144;2022-11-13T09:13:12;12.30;97.20
2653;DHT22;1336;48.692;9.144;2022-11-13T09:14:04;12.30;97.20
2653;DHT22;1336;48.692;9.144;2022-11-13T09:14:54;12.30;97.20
2653;DHT22;1336;48.692;9.144;2022-11-13T09:15:46;12.40;97.20
2653;DHT22;1336;48.692;9.144;2022-11-13T09:16:37;12.50;97.20
2653;DHT22;1336;48.692;9.144;2022-11-13T09:17:29;12.50;97.20
2653;DHT22;1336;48.692;9.144;2022-11-13T09:18:19;12.60;97.20
2653;DHT22;1336;48.692;9.144;2022-11-13T09:19:11;12.60;97.20
2653;DHT22;1336;48.692;9.144;2022-11-13T09:20:03;12.70;97.20
2653;DHT22;1336;48.692;9.144;2022-11-13T09:21:00;12.80;97.20
2653;DHT22;1336;48.692;9.144;2022-11-13T09:21:52;12.90;97.20
2653;DHT22;1336;48.692;9.144;2022-11-13T09:22:44;12.90;97.20
2653;DHT22;1336;48.692;9.144;2022-11-13T09:23:35;13.00;97.20
2653;DHT22;1336;48.692;9.144;2022-11-13T09:24:27;13.10;97.20
2653;DHT22;1336;48.692;9.144;2022-11-13T09:25:17;13.20;97.20
2653;DHT22;1336;48.692;9.144;2022-11-13T09:26:09;13.30;97.20
2653;DHT22;1336;48.692;9.144;2022-11-13T09:27:00;13.40;97.20
2653;DHT22;1336;48.692;9.144;2022-11-13T09:27:52;13.50;97.20
2653;DHT22;1336;48.692;9.144;2022-11-13T09:28:44;13.50;97.20
2653;DHT22;1336;48.692;9.144;2022-11-13T09:29:35;13.60;97.20
2653;DHT22;1336;48.692;9.144;2022-11-13T09:30:27;13.70;97.20
2653;DHT22;1336;48.692;9.144;2022-11-13T09:31:19;13.80;97.20
2653;DHT22;1336;48.692;9.144;2022-11-13T09:32:10;13.90;97.20
2653;DHT22;1336;48.692;9.144;2022-11-13T09:33:02;13.90;97.20
2653;DHT22;1336;48.692;9.144;2022-11-13T09:33:52;14.00;97.20
2653;DHT22;1336;48.692;9.144;2022-11-13T09:34:44;14.10;97.20
2653;DHT22;1336;48.692;9.144;2022-11-13T09:35:35;14.10;97.20
2653;DHT22;1336;48.692;9.144;2022-11-13T09:36:26;14.20;97.20
2653;DHT22;1336;48.692;9.144;2022-11-13T09:37:19;14.20;97.20
2653;DHT22;1336;48.692;9.144;2022-11-13T09:38:12;14.20;97.20
2653;DHT22;1336;48.692;9.144;2022-11-13T09:39:04;14.30;97.20
2653;DHT22;1336;48.692;9.144;2022-11-13T09:39:56;14.40;97.20
2653;DHT22;1336;48.692;9.144;2022-11-13T09:40:49;14.50;97.20
2653;DHT22;1336;48.692;9.144;2022-11-13T09:41:48;14.50;97.20
2653;DHT22;1336;48.692;9.144;2022-11-13T09:42:40;14.60;97.20
2653;DHT22;1336;48.692;9.144;2022-11-13T09:43:36;14.70;97.20
2653;DHT22;1336;48.692;9.144;2022-11-13T09:44:32;14.80;97.20
2653;DHT22;1336;48.692;9.144;2022-11-13T09:45:25;14.90;97.20
2653;DHT22;1336;48.692;9.144;2022-11-13T09:46:19;15.00;97.20
2653;DHT22;1336;48.692;9.144;2022-11-13T09:47:19;15.10;97.20
2653;DHT22;1336;48.692;9.144;2022-11-13T09:48:18;15.20;97.20
2653;DHT22;1336;48.692;9.144;2022-11-13T09:49:16;15.20;97.20
2653;DHT22;1336;48.692;9.144;2022-11-13T09:50:16;15.30;97.20
2653;DHT22;1336;48.692;9.144;2022-11-13T09:51:11;15.30;97.20
2653;DHT22;1336;48.692;9.144;2022-11-13T09:52:13;15.40;97.20
2653;DHT22;1336;48.692;9.144;2022-11-13T09:53:09;15.50;97.20
2653;DHT22;1336;48.692;9.144;2022-11-13T09:54:04;15.50;97.20
2653;DHT22;1336;48.692;9.144;2022-11-13T09:54:57;15.60;97.20
2653;DHT22;1336;48.692;9.144;2022-11-13T09:55:54;15.70;97.20
2653;DHT22;1336;48.692;9.144;2022-11-13T09:56:51;15.70;97.20
2653;DHT22;1336;48.692;9.144;2022-11-13T09:57:52;15.80;97.20
2653;DHT22;1336;48.692;9.144;2022-11-13T09:58:48;15.90;97.20
2653;DHT22;1336;48.692;9.144;2022-11-13T09:59:43;15.90;97.20
2653;DHT22;1336;48.692;9.144;2022-11-13T10:00:37;16.00;97.20
2653;DHT22;1336;48.692;9.144;2022-11-13T10:01:35;16.10;97.20
2653;DHT22;1336;48.692;9.144;2022-11-13T10:02:38;16.10;97.20
2653;DHT22;1336;48.692;9.144;2022-11-13T10:03:39;16.20;97.20
2653;DHT22;1336;48.692;9.144;2022-11-13T10:04:46;16.30;97.20
2653;DHT22;1336;48.692;9.144;2022-11-13T10:05:48;16.40;97.20
2653;DHT22;1336;48.692;9.144;2022-11-13T10:06:56;16.40;97.20
2653;DHT22;1336;48.692;9.144;2022-11-13T10:07:56;16.50;97.20
2653;DHT22;1336;48.692;9.144;2022-11-13T10:08:56;16.50;97.20
2653;DHT22;1336;48.692;9.144;2022-11-13T10:09:56;16.60;97.20
2653;DHT22;1336;48.692;9.144;2022-11-13T10:10:56;16.70;97.20
2653;DHT22;1336;48.692;9.144;2022-11-13T10:11:52;16.80;97.20
2653;DHT22;1336;48.692;9.144;2022-11-13T10:12:46;16.80;97.20
2653;DHT22;1336;48.692;9.144;2022-11-13T10:13:42;16.90;97.20
2653;DHT22;1336;48.692;9.144;2022-11-13T10:14:36;17.00;97.20
2653;DHT22;1336;48.692;9.144;2022-11-13T10:15:28;17.10;97.20
2653;DHT22;1336;48.692;9.144;2022-11-13T10:16:38;17.10;97.20
2653;DHT22;1336;48.692;9.144;2022-11-13T10:17:34;17.20;97.20
2653;DHT22;1336;48.692;9.144;2022-11-13T10:18:29;17.40;97.20
2653;DHT22;1336;48.692;9.144;2022-11-13T10:19:26;17.50;97.20
2653;DHT22;1336;48.692;9.144;2022-11-13T10:20:22;17.60;97.20
2653;DHT22;1336;48.692;9.144;2022-11-13T10:21:23;17.60;97.20
2653;DHT22;1336;48.692;9.144;2022-11-13T10:22:20;17.70;97.20
2653;DHT22;1336;48.692;9.144;2022-11-13T10:23:18;17.80;97.20
2653;DHT22;1336;48.692;9.144;2022-11-13T10:24:16;17.90;97.20
2653;DHT22;1336;48.692;9.144;2022-11-13T10:25:12;18.00;97.20
2653;DHT22;1336;48.692;9.144;2022-11-13T10:26:12;18.00;97.20
2653;DHT22;1336;48.692;9.144;2022-11-13T10:27:07;18.10;97.20
2653;DHT22;1336;48.692;9.144;2022-11-13T10:28:01;18.20;97.20
2653;DHT22;1336;48.692;9.144;2022-11-13T10:29:01;18.30;97.20
2653;DHT22;1336;48.692;9.144;2022-11-13T10:29:56;18.40;97.20
2653;DHT22;1336;48.692;9.144;2022-11-13T10:30:46;18.50;97.20
2653;DHT22;1336;48.692;9.144;2022-11-13T10:31:43;18.50;97.20
2653;DHT22;1336;48.692;9.144;2022-11-13T10:32:34;18.60;97.20
2653;DHT22;1336;48.692;9.144;2022-11-13T10:33:26;18.70;97.20
2653;DHT22;1336;48.692;9.144;2022-11-13T10:34:18;18.80;97.20
2653;DHT22;1336;48.692;9.144;2022-11-13T10:35:31;18.90;97.20
2653;DHT22;1336;48.692;9.144;2022-11-13T10:36:31;19.00;97.20
2653;DHT22;1336;48.692;9.144;2022-11-13T10:37:32;19.10;97.20
2653;DHT22;1336;48.692;9.144;2022-11-13T10:38:30;19.20;97.20
2653;DHT22;1336;48.692;9.144;2022-11-13T10:39:24;19.30;97.20
2653;DHT22;1336;48.692;9.144;2022-11-13T10:40:23;19.40;97.20
2653;DHT22;1336;48.692;9.144;2022-11-13T10:41:18;19.40;97.20
2653;DHT22;1336;48.692;9.144;2022-11-13T10:42:20;19.50;97.20
2653;DHT22;1336;48.692;9.144;2022-11-13T10:43:15;19.60;97.20
2653;DHT22;1336;48.692;9.144;2022-11-13T10:44:16;19.70;97.20
2653;DHT22;1336;48.692;9.144;2022-11-13T10:45:14;19.70;97.20
2653;DHT22;1336;48.692;9.144;2022-11-13T10:46:05;19.80;97.20
2653;DHT22;1336;48.692;9.144;2022-11-13T10:47:05;19.90;97.20
2653;DHT22;1336;48.692;9.144;2022-11-13T10:47:56;20.00;97.20
2653;DHT22;1336;48.692;9.144;2022-11-13T10:48:47;20.10;97.20
2653;DHT22;1336;48.692;9.144;2022-11-13T10:49:39;20.20;97.20
2653;DHT22;1336;48.692;9.144;2022-11-13T10:50:31;20.30;97.20
2653;DHT22;1336;48.692;9.144;2022-11-13T10:51:25;20.30;97.20
2653;DHT22;1336;48.692;9.144;2022-11-13T10:52:18;20.40;97.20
2653;DHT22;1336;48.692;9.144;2022-11-13T10:53:14;20.40;97.20
2653;DHT22;1336;48.692;9.144;2022-11-13T10:54:19;20.50;97.20
2653;DHT22;1336;48.692;9.144;2022-11-13T10:55:19;20.60;97.20
2653;DHT22;1336;48.692;9.144;2022-11-13T10:56:19;20.70;97.20
2653;DHT22;1336;48.692;9.144;2022-11-13T10:57:23;20.80;97.20
2653;DHT22;1336;48.692;9.144;2022-11-13T10:58:16;20.90;97.20
2653;DHT22;1336;48.692;9.144;2022-11-13T10:59:11;21.00;97.20
2653;DHT22;1336;48.692;9.144;2022-11-13T11:00:18;21.10;97.20
2653;DHT22;1336;48.692;9.144;2022-11-13T11:01:15;21.20;97.20
2653;DHT22;1336;48.692;9.144;2022-11-13T11:02:16;21.30;97.20
2653;DHT22;1336;48.692;9.144;2022-11-13T11:03:11;21.40;97.20
2653;DHT22;1336;48.692;9.144;2022-11-13T11:04:03;21.50;97.20
2653;DHT22;1336;48.692;9.144;2022-11-13T11:05:03;21.60;97.20
2653;DHT22;1336;48.692;9.144;2022-11-13T11:05:55;21.70;97.20
2653;DHT22;1336;48.692;9.144;2022-11-13T11:06:47;21.80;97.20
2653;DHT22;1336;48.692;9.144;2022-11-13T11:07:39;21.90;97.20
2653;DHT22;1336;48.692;9.144;2022-11-13T11:08:34;22.00;97.20
2653;DHT22;1336;48.692;9.144;2022-11-13T11:09:26;22.00;97.20
2653;DHT22;1336;48.692;9.144;2022-11-13T11:10:30;22.00;97.20
2653;DHT22;1336;48.692;9.144;2022-11-13T11:11:21;22.10;97.20
2653;DHT22;1336;48.692;9.144;2022-11-13T11:12:30;22.20;97.20
2653;DHT22;1336;48.692;9.144;2022-11-13T11:13:23;22.30;97.20
2653;DHT22;1336;48.692;9.144;2022-11-13T11:14:19;22.40;97.20
2653;DHT22;1336;48.692;9.144;2022-11-13T11:15:20;22.40;97.20
2653;DHT22;1336;48.692;9.144;2022-11-13T11:16:17;22.50;97.20
2653;DHT22;1336;48.692;9.144;2022-11-13T11:17:13;22.50;97.20
2653;DHT22;1336;48.692;9.144;2022-11-13T11:18:10;22.70;97.20
2653;DHT22;1336;48.692;9.144;2022-11-13T11:19:09;22.80;97.20
2653;DHT22;1336;48.692;9.144;2022-11-13T11:20:05;22.80;97.20
2653;DHT22;1336;48.692;9.144;2022-11-13T11:20:57;22.80;97.20
2653;DHT22;1336;48.692;9.144;2022-11-13T11:21:53;22.90;97.20
2653;DHT22;1336;48.692;9.144;2022-11-13T11:22:48;22.90;97.20
2653;DHT22;1336;48.692;9.144;2022-11-13T11:23:44;23.00;97.20
2653;DHT22;1336;48.692;9.144;2022-11-13T11:24:39;23.10;97.20
2653;DHT22;1336;48.692;9.144;2022-11-13T11:25:38;23.10;97.20
2653;DHT22;1336;48.692;9.144;2022-11-13T11:26:34;23.20;97.20
2653;DHT22;1336;48.692;9.144;2022-11-13T11:27:33;23.30;97.20
2653;DHT22;1336;48.692;9.144;2022-11-13T11:28:29;23.30;97.20
2653;DHT22;1336;48.692;9.144;2022-11-13T11:29:26;23.40;97.20
2653;DHT22;1336;48.692;9.144;2022-11-13T11:30:19;23.50;97.20
2653;DHT22;1336;48.692;9.144;2022-11-13T11:31:16;23.50;97.20
2653;DHT22;1336;48.692;9.144;2022-11-13T11:32:15;23.60;97.20
2653;DHT22;1336;48.692;9.144;2022-11-13T11:33:14;23.70;97.20
2653;DHT22;1336;48.692;9.144;2022-11-13T11:34:14;23.80;97.20
2653;DHT22;1336;48.692;9.144;2022-11-13T11:35:12;23.90;97.20
2653;DHT22;1336;48.692;9.144;2022-11-13T11:36:13;24.00;97.20
2653;DHT22;1336;48.692;9.144;2022-11-13T11:37:11;24.10;97.20
2653;DHT22;1336;48.692;9.144;2022-11-13T11:38:08;24.20;97.20
2653;DHT22;1336;48.692;9.144;2022-11-13T11:39:05;24.30;97.20
2653;DHT22;1336;48.692;9.144;2022-11-13T11:40:11;24.40;97.20
2653;DHT22;1336;48.692;9.144;2022-11-13T11:41:07;24.50;97.20
2653;DHT22;1336;48.692;9.144;2022-11-13T11:42:14;24.60;97.20
2653;DHT22;1336;48.692;9.144;2022-11-13T11:43:14;24.70;97.20
2653;DHT22;1336;48.692;9.144;2022-11-13T11:44:14;24.80;97.20
2653;DHT22;1336;48.692;9.144;2022-11-13T11:45:13;24.80;97.20
2653;DHT22;1336;48.692;9.144;2022-11-13T11:46:09;24.90;97.20
2653;DHT22;1336;48.692;9.144;2022-11-13T11:47:00;24.90;97.20
2653;DHT22;1336;48.692;9.144;2022-11-13T11:47:52;24.90;97.20
2653;DHT22;1336;48.692;9.144;2022-11-13T11:48:43;24.80;97.20
2653;DHT22;1336;48.692;9.144;2022-11-13T11:49:35;24.80;97.20
2653;DHT22;1336;48.692;9.144;2022-11-13T11:50:33;24.60;97.20
2653;DHT22;1336;48.692;9.144;2022-11-13T11:51:29;24.50;97.20
2653;DHT22;1336;48.692;9.144;2022-11-13T11:52:36;24.40;97.20